Time;durP1;ratioP1;P1;durP2;ratioP2;P2;SDS_P1;SDS_P2;PMS_P1;PMS_P2;Temp;Humidity;BMP_temperature;BMP_pressure;BME280_temperature;BME280_humidity;BME280_pressure;Samples;Min_cycle;Max_cycle;Signal;HPM_P1;HPM_P2
2023/08/25 00:00:59;;;;;;;7.93;4.53;;;;;;;-148.88;100.00;-17125.47;5055429;28;20033;-87
2023/08/25 00:03:24;;;;;;;7.18;4.55;;;;;;;-148.88;100.00;-17125.47;5054912;28;20020;-89
2023/08/25 00:05:53;;;;;;;6.50;4.85;;;;;;;-148.88;100.00;-17125.47;5055110;28;20037;-87
2023/08/25 00:08:20;;;;;;;7.15;4.68;;;;;;;-148.88;100.00;-17125.47;5061775;28;20031;-86
2023/08/25 00:10:45;;;;;;;6.55;4.53;;;;;;;-148.88;100.00;-17125.47;5055418;28;20017;-88
2023/08/25 00:13:11;;;;;;;7.38;4.30;;;;;;;-148.88;100.00;-17125.47;5056908;28;20021;-87
2023/08/25 00:15:36;;;;;;;6.22;3.92;;;;;;;-148.88;100.00;-17125.47;5055018;28;20020;-87
2023/08/25 00:18:05;;;;;;;5.15;3.60;;;;;;;-148.88;100.00;-17125.47;5055020;28;20063;-86
2023/08/25 00:20:31;;;;;;;6.53;3.88;;;;;;;-148.88;100.00;-17125.47;5054848;28;20076;-85
2023/08/25 00:22:57;;;;;;;7.45;4.43;;;;;;;-148.88;100.00;-17125.47;5055751;28;20052;-87
2023/08/25 00:25:25;;;;;;;5.80;4.53;;;;;;;-148.88;100.00;-17125.47;5065555;28;20029;-87
2023/08/25 00:27:50;;;;;;;7.57;4.35;;;;;;;-148.88;100.00;-17125.47;5055033;28;20025;-86
2023/08/25 00:30:15;;;;;;;7.78;4.28;;;;;;;-148.88;100.00;-17125.47;5054443;28;20108;-87
2023/08/25 00:32:41;;;;;;;9.75;4.30;;;;;;;-148.88;100.00;-17125.47;5055335;28;20032;-86
2023/08/25 00:35:06;;;;;;;7.18;4.28;;;;;;;-148.88;100.00;-17125.47;5054185;28;20056;-88
2023/08/25 00:37:32;;;;;;;6.22;3.85;;;;;;;-148.88;100.00;-17125.47;5053724;28;20025;-86
2023/08/25 00:39:57;;;;;;;7.05;4.22;;;;;;;-148.88;100.00;-17125.47;5052874;28;20032;-88
2023/08/25 00:42:23;;;;;;;7.32;4.30;;;;;;;-148.88;100.00;-17125.47;5053099;28;20032;-86
2023/08/25 00:44:48;;;;;;;6.75;3.78;;;;;;;-148.88;100.00;-17125.47;5053718;28;20025;-85
2023/08/25 00:47:14;;;;;;;4.68;2.95;;;;;;;-148.88;100.00;-17125.47;5053646;28;20486;-85
2023/08/25 00:49:40;;;;;;;8.48;3.58;;;;;;;-148.88;100.00;-17125.47;5055525;28;20025;-86
2023/08/25 00:52:07;;;;;;;4.90;3.65;;;;;;;-148.88;100.00;-17125.47;5054931;28;20387;-87
2023/08/25 00:54:36;;;;;;;7.00;3.78;;;;;;;-148.88;100.00;-17125.47;5053281;28;20025;-87
2023/08/25 00:57:03;;;;;;;7.07;3.85;;;;;;;-148.88;100.00;-17125.47;5053033;28;20373;-87
2023/08/25 00:59:29;;;;;;;5.47;3.33;;;;;;;-148.88;100.00;-17125.47;5054325;28;20025;-87
2023/08/25 01:01:55;;;;;;;6.13;3.35;;;;;;;-148.88;100.00;-17125.47;5053283;28;20036;-87
2023/08/25 01:04:21;;;;;;;6.30;3.35;;;;;;;-148.88;100.00;-17125.47;5053049;28;20027;-87
2023/08/25 01:06:48;;;;;;;5.72;3.20;;;;;;;-148.88;100.00;-17125.47;5052925;28;20403;-86
2023/08/25 01:09:14;;;;;;;5.28;2.80;;;;;;;-148.88;100.00;-17125.47;5054052;28;20016;-85
2023/08/25 01:11:58;;;;;;;8.63;3.17;;;;;;;-148.88;100.00;-17125.47;5052959;28;20017;-87
2023/08/25 01:14:36;;;;;;;3.47;2.78;;;;;;;-148.88;100.00;-17125.47;5052660;28;20025;-88
2023/08/25 01:17:22;;;;;;;4.32;2.78;;;;;;;-148.88;100.00;-17125.47;5052536;28;20037;-86
2023/08/25 01:19:53;;;;;;;6.28;2.80;;;;;;;-148.88;100.00;-17125.47;5052481;28;20029;-87
2023/08/25 01:22:32;;;;;;;5.57;3.05;;;;;;;-148.88;100.00;-17125.47;5054307;28;20024;-87
2023/08/25 01:25:19;;;;;;;5.05;3.10;;;;;;;-148.88;100.00;-17125.47;5052802;28;20033;-86
2023/08/25 01:27:45;;;;;;;6.40;3.10;;;;;;;-148.88;100.00;-17125.47;5040281;28;20407;-88
2023/08/25 01:30:11;;;;;;;7.28;3.65;;;;;;;-148.88;100.00;-17125.47;5053038;28;20017;-87
2023/08/25 01:32:37;;;;;;;7.07;3.15;;;;;;;-148.88;100.00;-17125.47;5052513;28;20029;-87
2023/08/25 01:35:04;;;;;;;4.63;3.00;;;;;;;-148.88;100.00;-17125.47;5052559;28;20111;-87
2023/08/25 01:37:36;;;;;;;5.15;2.80;;;;;;;-148.88;100.00;-17125.47;5052236;28;20399;-87
2023/08/25 01:40:10;;;;;;;4.88;3.17;;;;;;;-148.88;100.00;-17125.47;5052073;28;20025;-87
2023/08/25 01:42:38;;;;;;;6.85;3.25;;;;;;;-148.88;100.00;-17125.47;5053990;28;20060;-87
2023/08/25 01:45:06;;;;;;;5.88;3.28;;;;;;;-148.88;100.00;-17125.47;5052207;28;20028;-85
2023/08/25 01:47:34;;;;;;;6.78;3.38;;;;;;;-148.88;100.00;-17125.47;5052444;28;20484;-87
2023/08/25 01:50:00;;;;;;;6.10;3.20;;;;;;;-148.88;100.00;-17125.47;5052406;28;20483;-87
2023/08/25 01:52:26;;;;;;;5.63;3.28;;;;;;;-148.88;100.00;-17125.47;5052183;28;20032;-86
2023/08/25 01:54:52;;;;;;;4.82;3.10;;;;;;;-148.88;100.00;-17125.47;5052571;28;20017;-87
2023/08/25 01:57:17;;;;;;;6.43;3.65;;;;;;;-148.88;100.00;-17125.47;5051719;28;20060;-86
2023/08/25 01:59:43;;;;;;;6.55;3.53;;;;;;;-148.88;100.00;-17125.47;5052964;28;20029;-86
2023/08/25 02:02:08;;;;;;;5.25;3.33;;;;;;;-148.88;100.00;-17125.47;5052039;28;20056;-87
2023/08/25 02:04:34;;;;;;;4.80;3.55;;;;;;;-148.88;100.00;-17125.47;5053543;28;20125;-87
2023/08/25 02:06:59;;;;;;;8.55;3.67;;;;;;;-148.88;100.00;-17125.47;5053770;28;20021;-88
2023/08/25 02:09:25;;;;;;;8.40;3.95;;;;;;;-148.88;100.00;-17125.47;5053440;28;20025;-86
2023/08/25 02:11:53;;;;;;;6.70;4.28;;;;;;;-148.88;100.00;-17125.47;5054420;28;20052;-86
2023/08/25 02:14:19;;;;;;;8.30;4.18;;;;;;;-148.88;100.00;-17125.47;5052367;28;20035;-87
2023/08/25 02:16:44;;;;;;;7.90;4.88;;;;;;;-148.88;100.00;-17125.47;5051910;28;20029;-87
2023/08/25 02:19:09;;;;;;;6.72;4.43;;;;;;;-148.88;100.00;-17125.47;5052068;28;20033;-86
2023/08/25 02:21:38;;;;;;;8.57;4.20;;;;;;;-148.88;100.00;-17125.47;5051891;28;20029;-87
2023/08/25 02:24:03;;;;;;;8.15;5.40;;;;;;;-148.88;100.00;-17125.47;5051987;28;20044;-86
2023/08/25 02:26:29;;;;;;;9.50;4.20;;;;;;;-148.88;100.00;-17125.47;5052872;28;20396;-87
2023/08/25 02:28:55;;;;;;;9.20;5.00;;;;;;;-148.88;100.00;-17125.47;5051693;28;20067;-86
2023/08/25 02:31:30;;;;;;;10.45;4.63;;;;;;;-148.88;100.00;-17125.47;5051856;28;20038;-87
2023/08/25 02:33:55;;;;;;;6.22;4.32;;;;;;;-148.88;100.00;-17125.47;5053135;28;20398;-87
2023/08/25 02:36:20;;;;;;;6.63;4.57;;;;;;;-148.88;100.00;-17125.47;5051624;28;20550;-88
2023/08/25 02:38:46;;;;;;;7.30;6.10;;;;;;;-148.88;100.00;-17125.47;5051860;28;20548;-86
2023/08/25 02:41:14;;;;;;;8.93;5.53;;;;;;;-148.88;100.00;-17125.47;5051792;28;20099;-87
2023/08/25 02:43:40;;;;;;;8.45;5.60;;;;;;;-148.88;100.00;-17125.47;5053050;28;20036;-87
2023/08/25 02:46:05;;;;;;;6.78;4.57;;;;;;;-148.88;100.00;-17125.47;5054154;28;20033;-87
2023/08/25 02:48:31;;;;;;;7.75;4.78;;;;;;;-148.88;100.00;-17125.47;5051966;28;20021;-87
2023/08/25 02:51:03;;;;;;;7.72;4.72;;;;;;;-148.88;100.00;-17125.47;5051776;28;20500;-88
2023/08/25 02:53:28;;;;;;;7.25;5.10;;;;;;;-148.88;100.00;-17125.47;5052876;28;20025;-86
2023/08/25 02:55:53;;;;;;;8.10;5.07;;;;;;;-148.88;100.00;-17125.47;5052733;28;20033;-87
2023/08/25 02:58:19;;;;;;;6.70;4.85;;;;;;;-148.88;100.00;-17125.47;5052516;28;20352;-86
2023/08/25 03:01:11;;;;;;;5.70;4.38;;;;;;;-148.88;100.00;-17125.47;5051399;28;20021;-87
2023/08/25 03:03:39;;;;;;;7.05;5.47;;;;;;;-148.88;100.00;-17125.47;5052010;28;20067;-87
2023/08/25 03:06:05;;;;;;;8.63;5.45;;;;;;;-148.88;100.00;-17125.47;5055111;28;20116;-86
2023/08/25 03:08:30;;;;;;;9.93;6.07;;;;;;;-148.88;100.00;-17125.47;5055255;28;20056;-87
2023/08/25 03:10:56;;;;;;;9.55;7.28;;;;;;;-148.88;100.00;-17125.47;5055415;28;20031;-88
2023/08/25 03:13:21;;;;;;;11.98;8.70;;;;;;;-148.88;100.00;-17125.47;5055026;28;20028;-87
2023/08/25 03:15:48;;;;;;;11.95;8.88;;;;;;;-148.88;100.00;-17125.47;5054950;28;20051;-87
2023/08/25 03:18:14;;;;;;;12.85;8.25;;;;;;;-148.88;100.00;-17125.47;5055164;28;20029;-87
2023/08/25 03:20:40;;;;;;;11.55;7.57;;;;;;;-148.88;100.00;-17125.47;5055246;28;20048;-87
2023/08/25 03:23:05;;;;;;;9.50;7.35;;;;;;;-148.88;100.00;-17125.47;5056774;28;20108;-88
2023/08/25 03:25:31;;;;;;;9.60;7.30;;;;;;;-148.88;100.00;-17125.47;5056525;28;20082;-87
2023/08/25 03:27:57;;;;;;;7.90;6.90;;;;;;;-148.88;100.00;-17125.47;5055367;28;20063;-87
2023/08/25 03:30:22;;;;;;;9.57;7.50;;;;;;;-148.88;100.00;-17125.47;5054699;28;20107;-86
2023/08/25 03:32:53;;;;;;;10.98;7.88;;;;;;;-148.88;100.00;-17125.47;5054711;28;20027;-86
2023/08/25 03:35:19;;;;;;;13.45;8.88;;;;;;;-148.88;100.00;-17125.47;5054545;28;20035;-87
2023/08/25 03:37:44;;;;;;;13.18;8.30;;;;;;;-148.88;100.00;-17125.47;5054623;28;20025;-87
2023/08/25 03:40:19;;;;;;;10.27;7.82;;;;;;;-148.88;100.00;-17125.47;5054413;28;20025;-87
2023/08/25 03:42:44;;;;;;;11.70;7.72;;;;;;;-148.88;100.00;-17125.47;5055175;28;20021;-87
2023/08/25 03:45:10;;;;;;;10.07;7.25;;;;;;;-148.88;100.00;-17125.47;5054969;28;20031;-88
2023/08/25 03:47:35;;;;;;;9.32;7.28;;;;;;;-148.88;100.00;-17125.47;5054405;28;20387;-87
2023/08/25 03:50:01;;;;;;;14.98;8.98;;;;;;;-148.88;100.00;-17125.47;5054058;28;20427;-86
2023/08/25 03:52:26;;;;;;;10.32;7.80;;;;;;;-148.88;100.00;-17125.47;5054996;28;20021;-86
2023/08/25 03:54:51;;;;;;;9.90;7.55;;;;;;;-148.88;100.00;-17125.47;5055053;28;20476;-86
2023/08/25 03:57:17;;;;;;;11.65;7.53;;;;;;;-148.88;100.00;-17125.47;5055306;28;20440;-87
2023/08/25 03:59:42;;;;;;;9.73;6.38;;;;;;;-148.88;100.00;-17125.47;5054544;28;20104;-87
2023/08/25 04:02:08;;;;;;;9.70;6.88;;;;;;;-148.88;100.00;-17125.47;5057358;28;20352;-87
2023/08/25 04:04:33;;;;;;;11.23;7.20;;;;;;;-148.88;100.00;-17125.47;5054519;28;20078;-87
2023/08/25 04:06:59;;;;;;;11.48;6.40;;;;;;;-148.88;100.00;-17125.47;5054349;28;20032;-87
2023/08/25 04:09:24;;;;;;;10.02;6.78;;;;;;;-148.88;100.00;-17125.47;5053915;28;20060;-87
2023/08/25 04:11:50;;;;;;;9.48;7.40;;;;;;;-148.88;100.00;-17125.47;5054034;28;20013;-86
2023/08/25 04:14:15;;;;;;;9.50;6.53;;;;;;;-148.88;100.00;-17125.47;5054162;28;20066;-85
2023/08/25 04:16:41;;;;;;;11.52;6.47;;;;;;;-148.88;100.00;-17125.47;5054266;28;20036;-86
2023/08/25 04:19:06;;;;;;;10.70;6.82;;;;;;;-148.88;100.00;-17125.47;5053692;28;20377;-84
2023/08/25 04:21:31;;;;;;;8.65;7.22;;;;;;;-148.88;100.00;-17125.47;5054884;28;20387;-85
2023/08/25 04:23:57;;;;;;;9.13;7.47;;;;;;;-148.88;100.00;-17125.47;5053501;28;20111;-85
2023/08/25 04:26:22;;;;;;;11.13;7.97;;;;;;;-148.88;100.00;-17125.47;5054763;28;20020;-84
2023/08/25 04:28:48;;;;;;;12.52;8.65;;;;;;;-148.88;100.00;-17125.47;5055100;28;20025;-85
2023/08/25 04:31:13;;;;;;;10.75;8.60;;;;;;;-148.88;100.00;-17125.47;5055317;28;20447;-85
2023/08/25 04:33:39;;;;;;;12.48;8.98;;;;;;;-148.88;100.00;-17125.47;5055217;28;20020;-85
2023/08/25 04:36:04;;;;;;;14.20;9.63;;;;;;;-148.88;100.00;-17125.47;5054189;28;20024;-85
2023/08/25 04:38:30;;;;;;;14.88;11.35;;;;;;;-148.88;100.00;-17125.47;5055459;28;20513;-85
2023/08/25 04:40:55;;;;;;;16.48;11.20;;;;;;;-148.88;100.00;-17125.47;5057099;28;20028;-89
2023/08/25 04:43:20;;;;;;;14.60;11.75;;;;;;;-148.88;100.00;-17125.47;5054286;28;20033;-89
2023/08/25 04:45:55;;;;;;;20.75;14.45;;;;;;;-148.88;100.00;-17125.47;5053554;28;20020;-89
2023/08/25 04:48:22;;;;;;;21.00;14.02;;;;;;;-148.88;100.00;-17125.47;5053570;28;20028;-91
2023/08/25 04:50:49;;;;;;;22.05;16.08;;;;;;;-148.88;100.00;-17125.47;5055435;28;20025;-89
2023/08/25 04:53:14;;;;;;;22.42;16.42;;;;;;;-148.88;100.00;-17125.47;5057049;28;20021;-90
2023/08/25 04:55:40;;;;;;;19.67;15.52;;;;;;;-148.88;100.00;-17125.47;5057585;28;20036;-88
2023/08/25 04:58:05;;;;;;;26.08;16.63;;;;;;;-148.88;100.00;-17125.47;5054927;28;20048;-89
2023/08/25 05:00:37;;;;;;;22.23;16.88;;;;;;;-148.88;100.00;-17125.47;5054341;28;20029;-89
2023/08/25 05:03:02;;;;;;;23.83;17.88;;;;;;;-148.88;100.00;-17125.47;5054592;28;20029;-86
2023/08/25 05:05:28;;;;;;;23.20;18.42;;;;;;;-148.88;100.00;-17125.47;5054747;28;20071;-87
2023/08/25 05:07:53;;;;;;;21.40;16.65;;;;;;;-148.88;100.00;-17125.47;5054636;28;20476;-88
2023/08/25 05:10:19;;;;;;;26.63;17.33;;;;;;;-148.88;100.00;-17125.47;5053182;28;20518;-88
2023/08/25 05:12:44;;;;;;;22.77;16.23;;;;;;;-148.88;100.00;-17125.47;5054703;28;20029;-89
2023/08/25 05:15:15;;;;;;;26.38;17.35;;;;;;;-148.88;100.00;-17125.47;5054077;28;20025;-88
2023/08/25 05:17:41;;;;;;;20.58;15.45;;;;;;;-148.88;100.00;-17125.47;5056103;28;20033;-86
2023/08/25 05:20:08;;;;;;;21.90;16.48;;;;;;;-148.88;100.00;-17125.47;5057019;28;20443;-87
2023/08/25 05:22:34;;;;;;;21.40;15.70;;;;;;;-148.88;100.00;-17125.47;5053414;28;20044;-90
2023/08/25 05:25:00;;;;;;;20.27;15.63;;;;;;;-148.88;100.00;-17125.47;5053325;28;20395;-89
2023/08/25 05:27:25;;;;;;;21.60;14.50;;;;;;;-148.88;100.00;-17125.47;5052722;28;20119;-87
2023/08/25 05:30:00;;;;;;;21.15;16.33;;;;;;;-148.88;100.00;-17125.47;5052664;28;20484;-87
2023/08/25 05:32:25;;;;;;;22.00;16.63;;;;;;;-148.88;100.00;-17125.47;5053991;28;20498;-89
2023/08/25 05:34:50;;;;;;;24.33;17.33;;;;;;;-148.88;100.00;-17125.47;5053071;28;20459;-88
2023/08/25 05:37:16;;;;;;;23.08;17.33;;;;;;;-148.88;100.00;-17125.47;5052678;28;20029;-89
2023/08/25 05:39:44;;;;;;;22.70;17.90;;;;;;;-148.88;100.00;-17125.47;5052471;28;20031;-88
2023/08/25 05:42:09;;;;;;;21.77;17.25;;;;;;;-148.88;100.00;-17125.47;5052046;28;20032;-88
2023/08/25 05:44:41;;;;;;;22.45;17.20;;;;;;;-148.88;100.00;-17125.47;5052105;28;20017;-89
2023/08/25 05:47:06;;;;;;;25.63;18.38;;;;;;;-148.88;100.00;-17125.47;5052427;28;20130;-88
2023/08/25 05:49:31;;;;;;;24.23;17.80;;;;;;;-148.88;100.00;-17125.47;5053699;28;20448;-88
2023/08/25 05:51:57;;;;;;;25.08;18.58;;;;;;;-148.88;100.00;-17125.47;5052455;28;20025;-88
2023/08/25 05:54:28;;;;;;;27.25;19.05;;;;;;;-148.88;100.00;-17125.47;5052553;28;20021;-87
2023/08/25 05:56:54;;;;;;;25.05;19.55;;;;;;;-148.88;100.00;-17125.47;5053254;28;20033;-89
2023/08/25 05:59:19;;;;;;;25.48;19.42;;;;;;;-148.88;100.00;-17125.47;5054663;28;20025;-88
2023/08/25 06:01:45;;;;;;;28.55;21.05;;;;;;;-148.88;100.00;-17125.47;5053923;28;20028;-89
2023/08/25 06:04:10;;;;;;;28.15;21.20;;;;;;;-148.88;100.00;-17125.47;5052206;28;20458;-88
2023/08/25 06:06:38;;;;;;;25.20;20.55;;;;;;;-148.88;100.00;-17125.47;5053415;28;20040;-90
2023/08/25 06:09:08;;;;;;;27.13;20.08;;;;;;;-148.88;100.00;-17125.47;5052501;28;20087;-88
2023/08/25 06:11:34;;;;;;;29.15;19.45;;;;;;;-148.88;100.00;-17125.47;5052590;28;20086;-89
2023/08/25 06:13:59;;;;;;;26.17;18.88;;;;;;;-148.88;100.00;-17125.47;5051897;28;20052;-88
2023/08/25 06:16:26;;;;;;;25.90;17.92;;;;;;;-148.88;100.00;-17125.47;5052352;28;20070;-88
2023/08/25 06:18:52;;;;;;;27.92;19.73;;;;;;;-148.88;100.00;-17125.47;5053658;28;20111;-87
2023/08/25 06:21:17;;;;;;;25.40;19.38;;;;;;;-148.88;100.00;-17125.47;5051827;28;20127;-89
2023/08/25 06:23:43;;;;;;;28.92;19.85;;;;;;;-148.88;100.00;-17125.47;5051820;28;20020;-88
2023/08/25 06:26:08;;;;;;;25.65;18.73;;;;;;;-148.88;100.00;-17125.47;5051874;28;20137;-89
2023/08/25 06:28:42;;;;;;;26.75;18.90;;;;;;;-148.88;100.00;-17125.47;5051775;28;20108;-89
2023/08/25 06:31:09;;;;;;;24.23;17.40;;;;;;;-148.88;100.00;-17125.47;5052678;28;20501;-88
2023/08/25 06:33:38;;;;;;;25.67;17.65;;;;;;;-148.88;100.00;-17125.47;5053298;28;20029;-88
2023/08/25 06:36:05;;;;;;;23.35;17.75;;;;;;;-148.88;100.00;-17125.47;5052944;28;20115;-88
2023/08/25 06:38:39;;;;;;;25.23;18.45;;;;;;;-148.88;100.00;-17125.47;5055738;28;20025;-88
2023/08/25 06:41:05;;;;;;;23.40;17.02;;;;;;;-148.88;100.00;-17125.47;5056283;28;20028;-89
2023/08/25 06:43:30;;;;;;;23.23;16.75;;;;;;;-148.88;100.00;-17125.47;5056208;28;20025;-87
2023/08/25 06:45:56;;;;;;;23.50;16.27;;;;;;;-148.88;100.00;-17125.47;5057024;28;20027;-89
2023/08/25 06:48:22;;;;;;;23.00;17.10;;;;;;;-148.88;100.00;-17125.47;5056030;28;20554;-90
2023/08/25 06:50:48;;;;;;;22.15;16.00;;;;;;;-148.88;100.00;-17125.47;5056241;28;20017;-88
2023/08/25 06:53:13;;;;;;;20.63;15.30;;;;;;;-148.88;100.00;-17125.47;5055752;28;20033;-88
2023/08/25 06:55:38;;;;;;;25.33;18.35;;;;;;;-148.88;100.00;-17125.47;5055671;28;20325;-86
2023/08/25 06:58:06;;;;;;;24.88;16.75;;;;;;;-148.88;100.00;-17125.47;5055390;28;20024;-88
2023/08/25 07:00:32;;;;;;;22.77;16.75;;;;;;;-148.88;100.00;-17125.47;5055271;28;20032;-87
2023/08/25 07:03:01;;;;;;;22.17;16.60;;;;;;;-148.88;100.00;-17125.47;5056046;28;20464;-87
2023/08/25 07:05:27;;;;;;;22.90;16.83;;;;;;;-148.88;100.00;-17125.47;5055034;28;20036;-88
2023/08/25 07:07:58;;;;;;;21.70;17.80;;;;;;;-148.88;100.00;-17125.47;5056151;28;20025;-87
2023/08/25 07:10:24;;;;;;;25.08;17.95;;;;;;;-148.88;100.00;-17125.47;5056318;28;20376;-91
2023/08/25 07:12:49;;;;;;;24.20;17.80;;;;;;;-148.88;100.00;-17125.47;5055652;28;20472;-89
2023/08/25 07:15:15;;;;;;;22.60;16.63;;;;;;;-148.88;100.00;-17125.47;5056770;28;20047;-91
2023/08/25 07:17:40;;;;;;;21.83;17.08;;;;;;;-148.88;100.00;-17125.47;5083385;23;20054;-77
2023/08/25 07:20:08;;;;;;;20.35;16.02;;;;;;;-148.88;100.00;-17125.47;4995997;28;20161;-76
2023/08/25 07:22:34;;;;;;;22.90;16.33;;;;;;;-148.88;100.00;-17125.47;4994950;28;20026;-76
2023/08/25 07:24:59;;;;;;;21.42;16.52;;;;;;;-148.88;100.00;-17125.47;4996858;28;20086;-77
2023/08/25 07:27:25;;;;;;;21.33;16.33;;;;;;;-148.88;100.00;-17125.47;4996189;28;20088;-77
2023/08/25 07:29:53;;;;;;;18.48;13.95;;;;;;;-148.88;100.00;-17125.47;4996063;28;20397;-76
2023/08/25 07:32:19;;;;;;;23.90;16.75;;;;;;;-148.88;100.00;-17125.47;4994530;28;20022;-76
2023/08/25 07:34:45;;;;;;;19.17;14.98;;;;;;;-148.88;100.00;-17125.47;4995820;28;20026;-77
2023/08/25 07:37:11;;;;;;;17.40;14.20;;;;;;;-148.88;100.00;-17125.47;4995852;28;20085;-76
2023/08/25 07:39:36;;;;;;;19.80;14.10;;;;;;;-148.88;100.00;-17125.47;4994393;28;20027;-76
2023/08/25 07:42:02;;;;;;;17.25;14.07;;;;;;;-148.88;100.00;-17125.47;4995789;28;20028;-76
2023/08/25 07:44:27;;;;;;;16.15;13.13;;;;;;;-148.88;100.00;-17125.47;4995589;28;20022;-77
2023/08/25 07:46:52;;;;;;;18.95;13.20;;;;;;;-148.88;100.00;-17125.47;4995505;28;20213;-77
2023/08/25 07:49:18;;;;;;;18.80;13.98;;;;;;;-148.88;100.00;-17125.47;4995636;28;20109;-76
2023/08/25 07:51:43;;;;;;;18.80;14.05;;;;;;;-148.88;100.00;-17125.47;4995592;28;20046;-76
2023/08/25 07:54:08;;;;;;;19.10;12.82;;;;;;;-148.88;100.00;-17125.47;4995717;28;20469;-76
2023/08/25 07:56:34;;;;;;;16.33;12.63;;;;;;;-148.88;100.00;-17125.47;4994041;28;20122;-76
2023/08/25 07:58:59;;;;;;;18.10;14.48;;;;;;;-148.88;100.00;-17125.47;4993971;28;20026;-76
2023/08/25 08:01:24;;;;;;;17.25;13.07;;;;;;;-148.88;100.00;-17125.47;4995375;28;20058;-76
2023/08/25 08:03:50;;;;;;;16.58;12.80;;;;;;;-148.88;100.00;-17125.47;4995069;28;20022;-76
2023/08/25 08:06:16;;;;;;;15.18;11.82;;;;;;;-148.88;100.00;-17125.47;4993872;28;20458;-76
2023/08/25 08:08:43;;;;;;;15.98;12.57;;;;;;;-148.88;100.00;-17125.47;4995013;28;20141;-76
2023/08/25 08:11:09;;;;;;;14.95;11.52;;;;;;;-148.88;100.00;-17125.47;4993819;28;20061;-76
2023/08/25 08:13:34;;;;;;;12.45;10.52;;;;;;;-148.88;100.00;-17125.47;4995062;28;20077;-76
2023/08/25 08:16:00;;;;;;;15.85;11.25;;;;;;;-148.88;100.00;-17125.47;4995010;28;20030;-76
2023/08/25 08:18:25;;;;;;;13.73;10.02;;;;;;;-148.88;100.00;-17125.47;4994968;28;20083;-76
2023/08/25 08:20:50;;;;;;;13.85;10.57;;;;;;;-148.88;100.00;-17125.47;4995159;28;20026;-77
2023/08/25 08:23:16;;;;;;;12.63;9.88;;;;;;;-148.88;100.00;-17125.47;4994836;28;20022;-76
2023/08/25 08:25:41;;;;;;;9.27;7.90;;;;;;;-148.88;100.00;-17125.47;4993536;28;20465;-76
2023/08/25 08:28:08;;;;;;;14.38;8.85;;;;;;;-148.88;100.00;-17125.47;4994842;28;20023;-76
2023/08/25 08:30:34;;;;;;;15.70;9.45;;;;;;;-148.88;100.00;-17125.47;4994924;28;20500;-76
2023/08/25 08:33:00;;;;;;;11.20;9.02;;;;;;;-148.88;100.00;-17125.47;4994647;28;20485;-76
2023/08/25 08:35:25;;;;;;;12.43;9.32;;;;;;;-148.88;100.00;-17125.47;4994640;28;20030;-76
2023/08/25 08:37:51;;;;;;;12.52;9.20;;;;;;;-148.88;100.00;-17125.47;4994763;28;20037;-76
2023/08/25 08:40:16;;;;;;;11.55;8.57;;;;;;;-148.88;100.00;-17125.47;4994352;28;20040;-76
2023/08/25 08:42:46;;;;;;;11.52;8.45;;;;;;;-148.88;100.00;-17125.47;4994388;28;20022;-76
2023/08/25 08:45:11;;;;;;;11.65;9.52;;;;;;;-148.88;100.00;-17125.47;4993553;28;20413;-76
2023/08/25 08:47:37;;;;;;;10.70;8.70;;;;;;;-148.88;100.00;-17125.47;4994617;28;20505;-76
2023/08/25 08:50:06;;;;;;;10.63;8.27;;;;;;;-148.88;100.00;-17125.47;4994505;28;20030;-76
2023/08/25 08:52:32;;;;;;;10.70;8.52;;;;;;;-148.88;100.00;-17125.47;4994883;28;20032;-76
2023/08/25 08:54:59;;;;;;;11.85;7.65;;;;;;;-148.88;100.00;-17125.47;4994234;28;20026;-76
2023/08/25 08:57:28;;;;;;;12.13;8.35;;;;;;;-148.88;100.00;-17125.47;4993016;28;20033;-76
2023/08/25 08:59:58;;;;;;;10.43;7.28;;;;;;;-148.88;100.00;-17125.47;4994464;28;20026;-76
2023/08/25 09:02:28;;;;;;;8.57;7.13;;;;;;;-148.88;100.00;-17125.47;4993463;28;20030;-77
2023/08/25 09:04:58;;;;;;;9.02;7.38;;;;;;;-148.88;100.00;-17125.47;4992716;28;20026;-77
2023/08/25 09:07:27;;;;;;;9.75;8.10;;;;;;;-148.88;100.00;-17125.47;4994181;28;20085;-77
2023/08/25 09:09:53;;;;;;;10.65;7.15;;;;;;;-148.88;100.00;-17125.47;4992715;28;20444;-77
2023/08/25 09:12:19;;;;;;;11.27;6.78;;;;;;;-148.88;100.00;-17125.47;4992833;28;20022;-77
2023/08/25 09:14:45;;;;;;;11.50;6.93;;;;;;;-148.88;100.00;-17125.47;4994069;28;20034;-77
2023/08/25 09:17:14;;;;;;;10.07;6.93;;;;;;;-148.88;100.00;-17125.47;4994204;28;20026;-77
2023/08/25 09:19:41;;;;;;;10.77;7.50;;;;;;;-148.88;100.00;-17125.47;4992499;28;20054;-77
2023/08/25 09:22:11;;;;;;;9.82;6.95;;;;;;;-148.88;100.00;-17125.47;4992573;28;20038;-77
2023/08/25 09:24:38;;;;;;;9.40;6.18;;;;;;;-148.88;100.00;-17125.47;4993870;28;20448;-76
2023/08/25 09:27:05;;;;;;;9.93;6.10;;;;;;;-148.88;100.00;-17125.47;4992202;28;20173;-76
2023/08/25 09:29:41;;;;;;;10.73;6.22;;;;;;;-148.88;100.00;-17125.47;4993593;28;20140;-76
2023/08/25 09:32:06;;;;;;;8.50;6.78;;;;;;;-148.88;100.00;-17125.47;4992193;28;20092;-76
2023/08/25 09:34:32;;;;;;;9.48;7.05;;;;;;;-148.88;100.00;-17125.47;4993560;28;20022;-76
2023/08/25 09:36:57;;;;;;;9.80;7.22;;;;;;;-148.88;100.00;-17125.47;4993622;28;20088;-76
2023/08/25 09:39:23;;;;;;;13.57;8.63;;;;;;;-148.88;100.00;-17125.47;4993573;28;20054;-76
2023/08/25 09:41:50;;;;;;;14.73;10.32;;;;;;;-148.88;100.00;-17125.47;4993339;28;20037;-76
2023/08/25 09:44:16;;;;;;;15.25;10.82;;;;;;;-148.88;100.00;-17125.47;4993328;28;20057;-76
2023/08/25 09:46:44;;;;;;;17.25;11.90;;;;;;;-148.88;100.00;-17125.47;4993205;28;20037;-76
2023/08/25 09:49:12;;;;;;;18.02;12.43;;;;;;;-148.88;100.00;-17125.47;4993224;28;20113;-76
2023/08/25 09:51:41;;;;;;;15.55;12.40;;;;;;;-148.88;100.00;-17125.47;4993189;28;20489;-76
2023/08/25 09:54:16;;;;;;;19.15;15.70;;;;;;;-148.88;100.00;-17125.47;4993131;28;20030;-76
2023/08/25 09:56:44;;;;;;;17.70;14.80;;;;;;;-148.88;100.00;-17125.47;4993163;28;20033;-76
2023/08/25 09:59:12;;;;;;;25.80;17.42;;;;;;;-148.88;100.00;-17125.47;4991861;28;20025;-77
2023/08/25 10:01:39;;;;;;;25.20;19.20;;;;;;;-148.88;100.00;-17125.47;4993187;28;20033;-77
2023/08/25 10:04:06;;;;;;;28.15;20.38;;;;;;;-148.88;100.00;-17125.47;4993086;28;20121;-77
2023/08/25 10:06:35;;;;;;;32.88;21.95;;;;;;;-148.88;100.00;-17125.47;4993595;28;20018;-77
2023/08/25 10:09:01;;;;;;;30.55;22.38;;;;;;;-148.88;100.00;-17125.47;4993221;28;20065;-77
2023/08/25 10:11:32;;;;;;;29.58;22.83;;;;;;;-148.88;100.00;-17125.47;4993023;28;20026;-76
2023/08/25 10:14:02;;;;;;;35.35;24.52;;;;;;;-148.88;100.00;-17125.47;4996316;28;20061;-76
2023/08/25 10:16:31;;;;;;;37.10;25.55;;;;;;;-148.88;100.00;-17125.47;4997476;28;20029;-77
2023/08/25 10:19:00;;;;;;;36.40;24.92;;;;;;;-148.88;100.00;-17125.47;4997077;28;20412;-76
2023/08/25 10:21:26;;;;;;;30.13;23.38;;;;;;;-148.88;100.00;-17125.47;4997019;28;20030;-76
2023/08/25 10:23:55;;;;;;;30.60;23.70;;;;;;;-148.88;100.00;-17125.47;4997121;28;20524;-76
2023/08/25 10:26:22;;;;;;;35.00;23.88;;;;;;;-148.88;100.00;-17125.47;4997523;28;20034;-76
2023/08/25 10:28:49;;;;;;;31.25;24.05;;;;;;;-148.88;100.00;-17125.47;4996944;28;20034;-76
2023/08/25 10:31:15;;;;;;;34.42;24.88;;;;;;;-148.88;100.00;-17125.47;4995562;28;20042;-76
2023/08/25 10:33:47;;;;;;;31.73;22.25;;;;;;;-148.88;100.00;-17125.47;4996892;28;20030;-76
2023/08/25 10:36:18;;;;;;;33.80;24.13;;;;;;;-148.88;100.00;-17125.47;4997078;28;20038;-76
2023/08/25 10:38:59;;;;;;;34.88;22.85;;;;;;;-148.88;100.00;-17125.47;4996862;28;20023;-76
2023/08/25 10:41:24;;;;;;;31.75;20.85;;;;;;;-148.88;100.00;-17125.47;4997055;28;20029;-77
2023/08/25 10:43:57;;;;;;;28.38;18.88;;;;;;;-148.88;100.00;-17125.47;4996908;28;20022;-76
2023/08/25 10:46:24;;;;;;;23.87;18.07;;;;;;;-148.88;100.00;-17125.47;4996913;28;20593;-76
2023/08/25 10:49:07;;;;;;;21.77;16.48;;;;;;;-148.88;100.00;-17125.47;4996692;28;20484;-75
2023/08/25 10:51:36;;;;;;;26.45;16.25;;;;;;;-148.88;100.00;-17125.47;4996818;28;20026;-75
2023/08/25 10:54:02;;;;;;;15.30;12.13;;;;;;;-148.88;100.00;-17125.47;4995122;28;20026;-75